Time;durP1;ratioP1;P1;durP2;ratioP2;P2;SDS_P1;SDS_P2;PMS_P1;PMS_P2;Temp;Humidity;BMP_temperature;BMP_pressure;BME280_temperature;BME280_humidity;BME280_pressure;Samples;Min_cycle;Max_cycle;Signal;HPM_P1;HPM_P2
2021/12/03 00:00:42;;;;;;;4.63;2.90;;;0.80;99.90;;;;;;4991769;28;20027;-68
2021/12/03 00:03:09;;;;;;;6.90;3.22;;;0.70;99.90;;;;;;4993327;28;20054;-68
2021/12/03 00:05:35;;;;;;;5.05;3.15;;;0.60;99.90;;;;;;4991437;28;20033;-69
2021/12/03 00:08:01;;;;;;;5.68;3.42;;;0.60;99.90;;;;;;4991994;28;20046;-69
2021/12/03 00:10:27;;;;;;;7.93;3.67;;;0.60;99.90;;;;;;5004543;28;20026;-69
2021/12/03 00:12:54;;;;;;;4.68;3.53;;;0.50;99.90;;;;;;5012809;28;20045;-69
2021/12/03 00:15:23;;;;;;;7.28;4.00;;;0.50;99.90;;;;;;5015574;28;20087;-69
2021/12/03 00:17:49;;;;;;;8.57;3.72;;;0.50;99.90;;;;;;5006589;28;20109;-69
2021/12/03 00:20:15;;;;;;;8.60;4.13;;;0.50;99.90;;;;;;4996047;28;20509;-70
2021/12/03 00:22:43;;;;;;;8.98;4.28;;;0.50;99.90;;;;;;4996894;28;20053;-69
2021/12/03 00:25:09;;;;;;;8.68;4.15;;;0.50;99.90;;;;;;4996046;28;20023;-70
2021/12/03 00:27:35;;;;;;;7.57;4.63;;;0.40;99.90;;;;;;4995187;28;20030;-69
2021/12/03 00:30:01;;;;;;;12.13;4.78;;;0.40;99.90;;;;;;4996643;28;20038;-70
2021/12/03 00:32:27;;;;;;;14.75;5.25;;;0.30;99.90;;;;;;5015205;28;20494;-70
2021/12/03 00:34:53;;;;;;;7.03;4.28;;;0.30;99.90;;;;;;4995235;28;20030;-69
2021/12/03 00:37:18;;;;;;;8.07;4.82;;;0.40;99.90;;;;;;4995579;28;20031;-69
2021/12/03 00:39:44;;;;;;;8.75;4.68;;;0.30;99.90;;;;;;4995398;28;20038;-68
2021/12/03 00:42:14;;;;;;;8.25;4.53;;;0.40;99.90;;;;;;4996014;28;20026;-69
2021/12/03 00:44:40;;;;;;;11.23;4.75;;;0.30;99.90;;;;;;4995696;28;20081;-69
2021/12/03 00:47:06;;;;;;;11.43;4.70;;;0.30;99.90;;;;;;4995456;28;20420;-69
2021/12/03 00:49:31;;;;;;;9.63;4.60;;;0.40;99.90;;;;;;4994724;28;20050;-68
2021/12/03 00:51:57;;;;;;;12.73;5.18;;;0.40;99.90;;;;;;4995637;28;20067;-68
2021/12/03 00:54:23;;;;;;;7.15;4.03;;;0.30;99.90;;;;;;5014310;28;20364;-69
2021/12/03 00:56:48;;;;;;;8.20;5.40;;;0.40;99.90;;;;;;4997487;28;20061;-69
2021/12/03 00:59:14;;;;;;;9.40;5.03;;;0.30;99.90;;;;;;5004339;28;20032;-69
2021/12/03 01:01:40;;;;;;;9.35;4.95;;;0.30;99.90;;;;;;5014673;28;20113;-69
2021/12/03 01:04:06;;;;;;;8.50;5.18;;;0.20;99.90;;;;;;5014707;28;20458;-69
2021/12/03 01:06:32;;;;;;;6.57;4.78;;;0.20;99.90;;;;;;5014466;28;20030;-68
2021/12/03 01:08:57;;;;;;;10.10;5.20;;;0.20;99.90;;;;;;5013168;28;20543;-68
2021/12/03 01:11:23;;;;;;;9.43;5.65;;;0.20;99.90;;;;;;5014784;28;20037;-69
2021/12/03 01:13:49;;;;;;;8.52;5.03;;;0.10;99.90;;;;;;5000201;28;20821;-70
2021/12/03 01:16:16;;;;;;;11.88;4.97;;;0.10;99.90;;;;;;4994932;28;20026;-70
2021/12/03 01:18:45;;;;;;;8.95;4.72;;;0.20;99.90;;;;;;4994657;28;20097;-70
2021/12/03 01:21:11;;;;;;;8.70;4.93;;;0.20;99.90;;;;;;5014161;28;20446;-70
2021/12/03 01:23:37;;;;;;;7.10;4.47;;;0.20;99.90;;;;;;5001271;28;20110;-70
2021/12/03 01:26:03;;;;;;;7.47;4.72;;;0.20;99.90;;;;;;4994792;28;20026;-70
2021/12/03 01:28:29;;;;;;;10.02;5.15;;;0.30;99.90;;;;;;4995894;28;20475;-70
2021/12/03 01:30:57;;;;;;;10.57;4.75;;;0.30;99.90;;;;;;4994333;28;20026;-70
2021/12/03 01:33:23;;;;;;;11.23;5.68;;;0.40;99.90;;;;;;5014215;28;20542;-71
2021/12/03 01:35:49;;;;;;;13.55;5.30;;;0.50;99.90;;;;;;5013582;28;20105;-70
2021/12/03 01:38:15;;;;;;;6.93;5.18;;;0.60;99.90;;;;;;5003967;28;20038;-70
2021/12/03 01:40:41;;;;;;;8.32;4.95;;;0.60;99.90;;;;;;4993949;28;20030;-70
2021/12/03 01:43:09;;;;;;;9.50;5.13;;;0.70;99.90;;;;;;4995938;28;20034;-70
2021/12/03 01:45:38;;;;;;;9.60;5.25;;;0.60;99.90;;;;;;4993795;28;20153;-69
2021/12/03 01:48:04;;;;;;;12.23;5.50;;;0.50;99.90;;;;;;4994695;28;20031;-70
2021/12/03 01:50:38;;;;;;;8.93;5.03;;;0.50;99.90;;;;;;4994564;28;20030;-70
2021/12/03 01:53:04;;;;;;;11.48;5.68;;;0.50;99.90;;;;;;5002209;28;20025;-70
2021/12/03 01:55:31;;;;;;;7.15;5.22;;;0.50;99.90;;;;;;5013882;28;20145;-68
2021/12/03 01:57:57;;;;;;;8.30;4.95;;;0.50;99.90;;;;;;5011169;28;20034;-68
2021/12/03 02:00:32;;;;;;;10.13;6.03;;;0.40;99.90;;;;;;4994356;28;20022;-68
2021/12/03 02:02:59;;;;;;;8.35;5.32;;;0.30;99.90;;;;;;5002341;28;20030;-69
2021/12/03 02:05:25;;;;;;;10.38;6.18;;;0.30;99.90;;;;;;5013618;28;20030;-69
2021/12/03 02:07:51;;;;;;;10.85;5.85;;;0.20;99.90;;;;;;5013221;28;20023;-68
2021/12/03 02:10:19;;;;;;;9.70;5.85;;;0.10;99.90;;;;;;5013638;28;20026;-68
2021/12/03 02:12:45;;;;;;;12.32;6.28;;;0.00;99.90;;;;;;5011472;28;20022;-68
2021/12/03 02:15:12;;;;;;;9.52;6.38;;;0.10;99.90;;;;;;5012778;28;20040;-68
2021/12/03 02:17:37;;;;;;;11.18;6.47;;;0.00;99.90;;;;;;5013135;28;20030;-68
2021/12/03 02:20:06;;;;;;;11.30;7.03;;;-0.10;99.90;;;;;;5013154;28;20033;-67
2021/12/03 02:22:32;;;;;;;13.17;6.53;;;-0.10;99.90;;;;;;4994017;28;20029;-67
2021/12/03 02:24:58;;;;;;;13.43;6.82;;;-0.10;99.90;;;;;;4993379;28;20391;-70
2021/12/03 02:27:23;;;;;;;11.40;6.38;;;0.00;99.90;;;;;;5007883;28;20030;-70
2021/12/03 02:29:49;;;;;;;10.15;6.20;;;0.00;99.90;;;;;;5012051;28;20044;-70
2021/12/03 02:32:15;;;;;;;9.57;6.53;;;-0.10;99.90;;;;;;5012117;28;20105;-68
2021/12/03 02:34:41;;;;;;;11.50;7.20;;;-0.10;99.90;;;;;;5012215;28;20426;-68
2021/12/03 02:37:06;;;;;;;10.88;6.40;;;-0.20;99.90;;;;;;5012440;28;20030;-69
2021/12/03 02:39:32;;;;;;;12.82;6.93;;;-0.20;99.90;;;;;;4997273;28;20080;-69
2021/12/03 02:41:57;;;;;;;11.65;6.75;;;-0.20;99.90;;;;;;4993067;28;20444;-70
2021/12/03 02:44:24;;;;;;;14.23;7.72;;;-0.20;99.90;;;;;;5010816;28;20057;-69
2021/12/03 02:46:50;;;;;;;14.70;7.55;;;-0.20;99.90;;;;;;5012085;28;20034;-69
2021/12/03 02:49:15;;;;;;;11.80;6.72;;;-0.20;99.90;;;;;;5003120;28;20544;-69
2021/12/03 02:51:44;;;;;;;12.35;7.50;;;-0.20;99.90;;;;;;5010084;28;20038;-68
2021/12/03 02:54:10;;;;;;;12.02;7.20;;;-0.20;99.90;;;;;;5011509;28;20057;-69
2021/12/03 02:56:36;;;;;;;10.52;6.70;;;-0.30;99.90;;;;;;5012491;28;20017;-68
2021/12/03 02:59:03;;;;;;;13.38;7.07;;;-0.30;99.90;;;;;;5013150;28;20022;-69
2021/12/03 03:01:29;;;;;;;14.15;6.72;;;-0.30;99.90;;;;;;5012700;28;20522;-69
2021/12/03 03:03:55;;;;;;;12.15;6.70;;;-0.30;99.90;;;;;;5010512;28;20616;-69
2021/12/03 03:06:21;;;;;;;15.52;8.02;;;-0.40;99.90;;;;;;5012536;28;20026;-69
2021/12/03 03:08:48;;;;;;;10.57;6.55;;;-0.40;99.90;;;;;;5011972;28;20030;-68
2021/12/03 03:11:16;;;;;;;11.38;7.32;;;-0.50;99.90;;;;;;5002137;28;20050;-70
2021/12/03 03:13:42;;;;;;;16.38;7.93;;;-0.60;99.90;;;;;;5006914;28;20040;-69
2021/12/03 03:16:08;;;;;;;11.35;6.97;;;-0.60;99.90;;;;;;5007453;28;20038;-69
2021/12/03 03:18:35;;;;;;;13.73;7.45;;;-0.60;99.90;;;;;;4992965;28;20380;-69
2021/12/03 03:21:03;;;;;;;11.40;6.85;;;-0.60;99.90;;;;;;4996337;28;20030;-69
2021/12/03 03:23:29;;;;;;;16.17;7.78;;;-0.50;99.90;;;;;;5010464;28;20026;-68
2021/12/03 03:25:56;;;;;;;11.85;7.70;;;-0.50;99.90;;;;;;5011484;28;20021;-68
2021/12/03 03:28:23;;;;;;;11.02;7.55;;;-0.50;99.90;;;;;;5012350;28;20037;-68
2021/12/03 03:30:50;;;;;;;12.30;7.63;;;-0.50;99.90;;;;;;5011625;28;20069;-68
2021/12/03 03:33:17;;;;;;;12.00;7.55;;;-0.60;99.90;;;;;;5012418;28;20034;-69
2021/12/03 03:35:43;;;;;;;16.00;7.60;;;-0.60;99.90;;;;;;5010022;28;20034;-68
2021/12/03 03:38:09;;;;;;;12.82;7.88;;;-0.50;99.90;;;;;;5012237;28;20383;-69
2021/12/03 03:40:36;;;;;;;12.13;7.53;;;-0.50;99.90;;;;;;5011962;28;20026;-69
2021/12/03 03:43:04;;;;;;;13.00;7.30;;;-0.50;99.90;;;;;;5012038;28;20030;-69
2021/12/03 03:45:30;;;;;;;11.93;8.15;;;-0.40;99.90;;;;;;5012163;28;20546;-69
2021/12/03 03:47:57;;;;;;;13.13;7.85;;;-0.40;99.90;;;;;;4991889;28;20030;-69
2021/12/03 03:50:24;;;;;;;12.95;7.45;;;-0.30;99.90;;;;;;4992493;28;20031;-69
2021/12/03 03:52:53;;;;;;;16.50;7.82;;;-0.30;99.90;;;;;;4991660;28;20141;-69
2021/12/03 03:55:19;;;;;;;15.82;7.38;;;-0.20;99.90;;;;;;4992592;28;20034;-68
2021/12/03 03:57:47;;;;;;;13.65;7.30;;;-0.20;99.90;;;;;;5005129;28;20030;-68
2021/12/03 04:00:16;;;;;;;12.88;7.40;;;-0.10;99.90;;;;;;5000662;28;20042;-70
2021/12/03 04:02:43;;;;;;;12.80;6.88;;;-0.10;99.90;;;;;;4999963;28;20030;-70
2021/12/03 04:05:10;;;;;;;14.30;8.20;;;-0.10;99.90;;;;;;5000180;28;20034;-70
2021/12/03 04:07:37;;;;;;;13.77;7.45;;;-0.10;99.90;;;;;;4998799;28;20121;-70
2021/12/03 04:10:05;;;;;;;10.07;7.05;;;-0.10;99.90;;;;;;4991565;28;20037;-70
2021/12/03 04:12:31;;;;;;;11.00;7.40;;;0.00;99.90;;;;;;4990005;28;20542;-75
2021/12/03 04:14:56;;;;;;;14.43;8.10;;;0.00;99.90;;;;;;5002446;28;20029;-71
2021/12/03 04:17:22;;;;;;;14.63;8.15;;;0.00;99.90;;;;;;5000962;28;20035;-70
2021/12/03 04:19:48;;;;;;;14.68;7.45;;;0.00;99.90;;;;;;4999425;28;20121;-70
2021/12/03 04:22:17;;;;;;;12.60;7.85;;;0.10;99.90;;;;;;4999332;28;20029;-70
2021/12/03 04:24:43;;;;;;;12.40;7.25;;;0.00;99.90;;;;;;5000283;28;20026;-69
2021/12/03 04:27:09;;;;;;;10.65;7.18;;;0.10;99.90;;;;;;4999079;28;20030;-70
2021/12/03 04:29:35;;;;;;;14.82;7.60;;;0.10;99.90;;;;;;4999610;28;20030;-70
2021/12/03 04:32:01;;;;;;;14.10;7.82;;;0.10;99.90;;;;;;4998899;28;20452;-70
2021/12/03 04:34:27;;;;;;;13.93;8.30;;;0.20;99.90;;;;;;5000255;28;20109;-70
2021/12/03 04:36:52;;;;;;;15.45;8.75;;;0.20;99.90;;;;;;4999367;28;20792;-69
2021/12/03 04:39:18;;;;;;;14.02;8.13;;;0.20;99.90;;;;;;5001381;28;20041;-70
2021/12/03 04:41:44;;;;;;;13.45;7.70;;;0.20;99.90;;;;;;4997767;28;20030;-69
2021/12/03 04:44:09;;;;;;;13.15;8.23;;;0.20;99.90;;;;;;5000629;28;20033;-70
2021/12/03 04:46:35;;;;;;;12.40;7.90;;;0.20;99.90;;;;;;4998343;28;20061;-70
2021/12/03 04:49:01;;;;;;;14.90;8.93;;;0.20;99.90;;;;;;4999916;28;20117;-70
2021/12/03 04:51:27;;;;;;;19.33;9.82;;;0.20;99.90;;;;;;5003202;28;20058;-70
2021/12/03 04:53:53;;;;;;;16.73;9.02;;;0.20;99.90;;;;;;5001956;28;20019;-70
2021/12/03 04:56:19;;;;;;;13.85;8.07;;;0.20;99.90;;;;;;5006793;28;20026;-71
2021/12/03 04:58:45;;;;;;;16.13;8.43;;;0.20;99.90;;;;;;5001558;28;20030;-70
2021/12/03 05:01:11;;;;;;;10.73;6.80;;;0.20;99.90;;;;;;5002354;28;20497;-70
2021/12/03 05:03:37;;;;;;;11.38;7.25;;;0.30;99.90;;;;;;5003079;28;20505;-70
2021/12/03 05:06:04;;;;;;;13.50;8.07;;;0.30;99.90;;;;;;5004700;28;20050;-70
2021/12/03 05:08:30;;;;;;;12.43;8.40;;;0.30;99.90;;;;;;5003302;28;20077;-70
2021/12/03 05:10:57;;;;;;;11.55;7.75;;;0.40;99.90;;;;;;5002276;28;20022;-70
2021/12/03 05:13:32;;;;;;;12.98;8.68;;;0.40;99.90;;;;;;4998696;28;20104;-70
2021/12/03 05:15:58;;;;;;;12.77;8.45;;;0.30;99.90;;;;;;5000894;28;20125;-69
2021/12/03 05:18:27;;;;;;;11.68;7.63;;;0.40;99.90;;;;;;5007706;28;20038;-70
2021/12/03 05:20:55;;;;;;;13.33;8.60;;;0.40;99.90;;;;;;5002246;28;20030;-69
2021/12/03 05:23:22;;;;;;;12.65;8.88;;;0.40;99.90;;;;;;5004111;28;20283;-69
2021/12/03 05:25:48;;;;;;;11.85;8.23;;;0.40;99.90;;;;;;5001022;28;20080;-70
2021/12/03 05:28:16;;;;;;;13.82;8.40;;;0.40;99.90;;;;;;5004577;28;20038;-69
2021/12/03 05:30:42;;;;;;;13.75;7.95;;;0.40;99.90;;;;;;5001502;28;20032;-69
2021/12/03 05:33:09;;;;;;;11.32;7.85;;;0.40;99.90;;;;;;5004321;28;20471;-70
2021/12/03 05:35:36;;;;;;;14.35;7.93;;;0.40;99.90;;;;;;5001097;28;20026;-70
2021/12/03 05:38:02;;;;;;;15.93;9.32;;;0.40;99.90;;;;;;5002238;28;20030;-70
2021/12/03 05:40:29;;;;;;;12.23;7.82;;;0.50;99.90;;;;;;5004093;28;20037;-70
2021/12/03 05:42:54;;;;;;;10.38;7.53;;;0.50;99.90;;;;;;5007784;28;20549;-69
2021/12/03 05:45:24;;;;;;;11.30;7.63;;;0.50;99.90;;;;;;5001671;28;20092;-69
2021/12/03 05:47:50;;;;;;;9.85;7.13;;;0.40;99.90;;;;;;5002683;28;20101;-70
2021/12/03 05:50:17;;;;;;;13.27;7.47;;;0.50;99.90;;;;;;5001857;28;20050;-69
2021/12/03 05:52:44;;;;;;;10.80;7.35;;;0.50;99.90;;;;;;5002389;28;20026;-69
2021/12/03 05:55:11;;;;;;;11.43;7.78;;;0.50;99.90;;;;;;5000985;28;20026;-70
2021/12/03 05:57:37;;;;;;;10.05;7.40;;;0.50;99.90;;;;;;5003576;28;20022;-70
2021/12/03 06:00:07;;;;;;;9.57;7.57;;;0.50;99.90;;;;;;5001702;28;20030;-73
2021/12/03 06:02:32;;;;;;;11.05;7.65;;;0.50;99.90;;;;;;5002027;28;20109;-69
2021/12/03 06:04:58;;;;;;;10.90;7.70;;;0.50;99.90;;;;;;5010361;28;20122;-69
2021/12/03 06:07:24;;;;;;;10.10;7.38;;;0.50;99.90;;;;;;5012953;28;20030;-70
2021/12/03 06:09:50;;;;;;;13.38;7.22;;;0.50;99.90;;;;;;4997496;28;20035;-69
2021/12/03 06:12:15;;;;;;;8.68;6.65;;;0.50;99.90;;;;;;4993873;28;20030;-72
2021/12/03 06:14:42;;;;;;;10.50;7.22;;;0.50;99.90;;;;;;4993795;28;20479;-70
2021/12/03 06:17:12;;;;;;;11.60;7.78;;;0.40;99.90;;;;;;5008296;28;20402;-71
2021/12/03 06:19:38;;;;;;;10.73;7.35;;;0.40;99.90;;;;;;5013976;28;20478;-70
2021/12/03 06:22:04;;;;;;;11.48;7.20;;;0.40;99.90;;;;;;5007067;28;20026;-71
2021/12/03 06:24:30;;;;;;;10.40;7.55;;;0.40;99.90;;;;;;5004268;28;20038;-71
2021/12/03 06:26:56;;;;;;;13.65;8.00;;;0.40;99.90;;;;;;4996498;28;20031;-73
2021/12/03 06:29:21;;;;;;;11.20;7.95;;;0.50;99.90;;;;;;4993575;28;20475;-73
2021/12/03 06:31:47;;;;;;;9.10;6.30;;;0.50;99.90;;;;;;4993651;28;20105;-73
2021/12/03 06:34:13;;;;;;;11.10;7.13;;;0.50;99.90;;;;;;4992534;28;20035;-74
2021/12/03 06:36:38;;;;;;;10.90;6.95;;;0.50;99.90;;;;;;4994900;28;20034;-73
2021/12/03 06:39:04;;;;;;;9.13;6.25;;;0.50;99.90;;;;;;4992900;28;20030;-70
2021/12/03 06:41:30;;;;;;;10.10;6.90;;;0.50;99.90;;;;;;4999857;28;20080;-70
2021/12/03 06:43:57;;;;;;;11.13;7.00;;;0.50;99.90;;;;;;5012081;28;20030;-71
2021/12/03 06:46:23;;;;;;;10.50;7.28;;;0.40;99.90;;;;;;5011767;28;20129;-71
2021/12/03 06:48:48;;;;;;;9.90;6.10;;;0.30;99.90;;;;;;5012586;28;20602;-74
2021/12/03 06:51:14;;;;;;;11.05;6.30;;;0.30;99.90;;;;;;4999088;28;20076;-71
2021/12/03 06:53:42;;;;;;;10.77;7.63;;;0.30;99.90;;;;;;5012447;28;20065;-69
2021/12/03 06:56:11;;;;;;;13.13;7.85;;;0.20;99.90;;;;;;5010877;28;20030;-69
2021/12/03 06:58:36;;;;;;;14.15;7.63;;;0.10;99.90;;;;;;5005940;28;20033;-69
2021/12/03 07:01:03;;;;;;;14.45;8.90;;;0.10;99.90;;;;;;4992340;28;20026;-69
2021/12/03 07:03:29;;;;;;;12.77;8.07;;;0.00;99.90;;;;;;4992987;28;20085;-69
2021/12/03 07:05:54;;;;;;;14.35;9.13;;;-0.10;99.90;;;;;;4994695;28;20030;-70
2021/12/03 07:08:20;;;;;;;10.52;7.25;;;-0.10;99.90;;;;;;4992532;28;20034;-70
2021/12/03 07:10:46;;;;;;;13.68;7.88;;;0.00;99.90;;;;;;4992370;28;20057;-70
2021/12/03 07:13:11;;;;;;;12.00;7.00;;;-0.10;99.90;;;;;;5012019;28;20064;-69
2021/12/03 07:15:38;;;;;;;12.40;6.88;;;-0.10;99.90;;;;;;5010190;28;20034;-69
2021/12/03 07:18:04;;;;;;;12.63;7.75;;;-0.10;99.90;;;;;;5000801;28;20034;-70
2021/12/03 07:20:30;;;;;;;11.40;7.03;;;-0.20;99.90;;;;;;4992382;28;20038;-70
2021/12/03 07:22:56;;;;;;;9.52;6.35;;;-0.20;99.90;;;;;;4990856;28;20022;-70
2021/12/03 07:25:22;;;;;;;11.98;6.78;;;-0.30;99.90;;;;;;4992491;28;20058;-70
2021/12/03 07:27:49;;;;;;;12.60;7.32;;;-0.40;99.90;;;;;;4991805;28;20034;-70
2021/12/03 07:30:17;;;;;;;13.55;7.43;;;-0.40;99.90;;;;;;4998613;28;20030;-70
2021/12/03 07:32:42;;;;;;;11.32;7.68;;;-0.50;99.90;;;;;;5011529;28;20482;-70
2021/12/03 07:35:09;;;;;;;13.48;8.25;;;-0.50;99.90;;;;;;5011329;28;20038;-71
2021/12/03 07:37:35;;;;;;;11.52;7.55;;;-0.60;99.90;;;;;;5011884;28;20022;-71
2021/12/03 07:40:04;;;;;;;12.93;8.20;;;-0.70;99.90;;;;;;5011335;28;20091;-71
2021/12/03 07:42:31;;;;;;;13.35;8.15;;;-0.70;99.90;;;;;;4996974;28;20023;-70
2021/12/03 07:44:57;;;;;;;14.45;8.05;;;-0.70;99.90;;;;;;4991699;28;20444;-70
2021/12/03 07:47:23;;;;;;;13.13;8.80;;;-0.70;99.90;;;;;;4992326;28;20133;-70
2021/12/03 07:49:50;;;;;;;16.55;9.88;;;-0.80;99.90;;;;;;4991571;28;20038;-71
2021/12/03 07:52:18;;;;;;;14.55;8.75;;;-0.80;99.90;;;;;;4992418;28;20019;-70
2021/12/03 07:54:45;;;;;;;12.05;8.25;;;-0.70;99.90;;;;;;4991814;28;20064;-70
2021/12/03 07:57:11;;;;;;;15.05;8.10;;;-0.70;99.90;;;;;;4992320;28;20051;-71
2021/12/03 07:59:36;;;;;;;12.77;8.48;;;-0.70;99.90;;;;;;5007487;28;20118;-70
2021/12/03 08:02:02;;;;;;;11.82;7.15;;;-0.70;99.90;;;;;;5011159;28;20447;-71
2021/12/03 08:04:28;;;;;;;13.55;8.43;;;-0.70;99.90;;;;;;5013910;28;20030;-70
2021/12/03 08:06:54;;;;;;;14.25;8.70;;;-0.70;99.90;;;;;;5011203;28;20018;-70
2021/12/03 08:09:22;;;;;;;14.73;8.27;;;-0.70;99.90;;;;;;5011701;28;20037;-70
2021/12/03 08:11:48;;;;;;;13.02;8.40;;;-0.70;99.90;;;;;;5001777;28;20054;-70
2021/12/03 08:14:14;;;;;;;13.55;8.00;;;-0.70;99.90;;;;;;4992351;28;20034;-70
2021/12/03 08:16:40;;;;;;;13.95;7.40;;;-0.60;99.90;;;;;;4993178;28;20436;-70
2021/12/03 08:19:06;;;;;;;12.25;7.32;;;-0.50;99.90;;;;;;4991969;28;20114;-70
2021/12/03 08:21:32;;;;;;;14.23;7.13;;;-0.50;99.90;;;;;;4994478;28;20027;-70
2021/12/03 08:24:01;;;;;;;10.60;6.88;;;-0.30;99.90;;;;;;4994067;28;20038;-70
2021/12/03 08:26:28;;;;;;;9.98;7.20;;;-0.30;99.90;;;;;;4993658;28;20033;-70
2021/12/03 08:28:54;;;;;;;11.27;7.18;;;-0.20;99.90;;;;;;4991393;28;20039;-71
2021/12/03 08:31:20;;;;;;;9.82;6.43;;;0.00;99.90;;;;;;4990653;28;20031;-71
2021/12/03 08:33:46;;;;;;;14.23;7.82;;;0.00;99.90;;;;;;4993043;28;20043;-68
2021/12/03 08:36:12;;;;;;;13.57;6.78;;;0.10;99.90;;;;;;4995944;28;20038;-70
2021/12/03 08:38:38;;;;;;;12.85;6.53;;;0.20;99.90;;;;;;4999822;28;20030;-70
2021/12/03 08:41:05;;;;;;;10.82;6.45;;;0.30;99.90;;;;;;4995028;28;20109;-70
2021/12/03 08:43:31;;;;;;;10.20;6.10;;;0.30;99.90;;;;;;4995842;28;20558;-71
2021/12/03 08:45:57;;;;;;;11.40;6.20;;;0.40;99.90;;;;;;4994965;28;20133;-70
2021/12/03 08:48:24;;;;;;;9.90;5.82;;;0.50;99.90;;;;;;4995690;28;20038;-70
2021/12/03 08:51:04;;;;;;;9.57;5.78;;;0.50;99.90;;;;;;4998025;28;20034;-70
2021/12/03 08:56:14;;;;;;;9.85;6.13;;;0.60;99.90;;;;;;4995225;28;20041;-70
2021/12/03 08:58:39;;;;;;;9.65;5.15;;;0.60;99.90;;;;;;4995052;28;20061;-70
2021/12/03 09:01:08;;;;;;;10.18;5.00;;;0.70;99.90;;;;;;4994689;28;20073;-70
2021/12/03 09:03:33;;;;;;;12.70;5.47;;;0.80;99.90;;;;;;4995542;28;20030;-70
2021/12/03 09:05:59;;;;;;;6.78;4.18;;;0.90;99.90;;;;;;4994351;28;20471;-70
2021/12/03 09:08:26;;;;;;;8.98;4.20;;;1.00;99.90;;;;;;4995037;28;20466;-70
2021/12/03 09:10:51;;;;;;;7.82;4.53;;;1.00;99.90;;;;;;4994609;28;20027;-70
2021/12/03 09:13:17;;;;;;;5.93;3.88;;;1.10;99.90;;;;;;4995199;28;20036;-70
2021/12/03 09:15:50;;;;;;;8.23;4.40;;;1.10;99.90;;;;;;4995235;28;20035;-71
2021/12/03 09:18:49;;;;;;;5.82;3.50;;;1.10;99.90;;;;;;4995059;28;20088;-70
2021/12/03 09:21:12;;;;;;;4.03;2.90;;;1.20;99.90;;;;;;4991893;28;20468;-70
2021/12/03 09:26:25;;;;;;;5.45;2.60;;;1.40;99.90;;;;;;4994359;28;20076;-70
2021/12/03 09:29:00;;;;;;;3.83;2.38;;;1.50;99.90;;;;;;4994100;28;20034;-70
2021/12/03 09:31:26;;;;;;;4.65;2.33;;;1.50;99.90;;;;;;4994578;28;20105;-71
2021/12/03 09:33:51;;;;;;;4.63;2.45;;;1.60;99.90;;;;;;4993951;28;20427;-71
2021/12/03 09:36:17;;;;;;;6.35;2.35;;;1.60;99.90;;;;;;4994614;28;20105;-70
2021/12/03 09:38:43;;;;;;;4.80;2.33;;;1.70;99.90;;;;;;4994760;28;20361;-70
2021/12/03 09:41:12;;;;;;;5.68;2.13;;;1.80;99.90;;;;;;4994231;28;20368;-70
2021/12/03 09:43:43;;;;;;;2.53;1.88;;;1.90;99.90;;;;;;4994786;28;20034;-71
2021/12/03 09:46:15;;;;;;;7.22;2.90;;;1.90;99.90;;;;;;4993283;28;20050;-71
2021/12/03 09:51:17;;;;;;;5.10;2.00;;;2.00;99.90;;;;;;4994714;28;20048;-70
2021/12/03 09:56:25;;;;;;;4.13;2.17;;;2.10;99.90;;;;;;4994463;28;20023;-70
2021/12/03 10:10:41;;;;;;;7.07;2.15;;;2.30;99.90;;;;;;4994235;28;20034;-70
2021/12/03 10:20:47;;;;;;;6.28;2.33;;;2.40;99.90;;;;;;4994286;28;20479;-70
2021/12/03 10:39:53;;;;;;;6.80;2.78;;;2.70;99.90;;;;;;4993488;28;20092;-69
2021/12/03 10:48:11;;;;;;;5.63;2.55;;;2.70;99.90;;;;;;4992868;28;20037;-68
2021/12/03 14:44:23;;;;;;;3.17;1.80;;;2.90;99.90;;;;;;4969553;28;20034;-69
2021/12/03 14:55:53;;;;;;;3.42;1.73;;;2.70;99.90;;;;;;5012665;28;20040;-68
2021/12/03 14:58:29;;;;;;;5.20;1.98;;;2.60;99.90;;;;;;5006709;28;20027;-69
2021/12/03 15:06:38;;;;;;;4.38;2.33;;;2.40;99.90;;;;;;4992012;28;20085;-70
2021/12/03 15:12:27;;;;;;;4.00;2.03;;;2.30;99.90;;;;;;4999711;28;20049;-69
2021/12/03 15:20:04;;;;;;;4.53;2.30;;;2.10;99.90;;;;;;5009198;28;20076;-76
2021/12/03 15:23:23;;;;;;;4.43;2.30;;;2.00;99.90;;;;;;4994339;28;20034;-70
2021/12/03 15:25:23;;;;;;;6.47;2.78;;;1.90;99.90;;;;;;5006717;28;20402;-69
2021/12/03 15:36:13;;;;;;;3.38;2.10;;;1.40;99.90;;;;;;5000674;28;20152;-71
2021/12/03 15:38:30;;;;;;;4.43;2.08;;;1.40;99.90;;;;;;4993665;28;20521;-70
2021/12/03 16:06:14;;;;;;;6.43;2.70;;;0.80;99.90;;;;;;5010154;28;20033;-68
2021/12/03 16:08:14;;;;;;;4.90;2.53;;;0.90;99.90;;;;;;4999859;28;20438;-68
2021/12/03 16:13:33;;;;;;;7.93;2.70;;;1.00;99.90;;;;;;5002131;28;20033;-69
2021/12/03 16:19:17;;;;;;;6.28;2.80;;;1.10;99.90;;;;;;5011473;28;19921;-69
2021/12/03 16:24:45;;;;;;;6.80;2.55;;;1.20;99.90;;;;;;5011595;28;20026;-69
2021/12/03 16:53:52;;;;;;;6.05;2.33;;;1.60;99.90;;;;;;5011403;28;20026;-70
2021/12/03 16:56:22;;;;;;;4.50;2.13;;;1.60;99.90;;;;;;5014561;28;20030;-70
2021/12/03 16:58:48;;;;;;;5.85;2.10;;;1.60;99.90;;;;;;5006502;28;20039;-69
2021/12/03 17:01:22;;;;;;;6.00;1.80;;;1.70;99.90;;;;;;4995412;28;20033;-69
2021/12/03 17:03:56;;;;;;;3.85;2.03;;;1.80;99.90;;;;;;4994529;28;20412;-70
2021/12/03 17:49:50;;;;;;;7.32;2.33;;;2.10;99.90;;;;;;4995192;28;20463;-71
2021/12/03 18:00:29;;;;;;;7.25;2.60;;;2.10;99.90;;;;;;5013811;28;20088;-68
2021/12/03 18:03:03;;;;;;;5.60;2.00;;;2.00;99.90;;;;;;5014737;28;20116;-69
2021/12/03 18:08:45;;;;;;;9.63;2.60;;;2.00;99.90;;;;;;5013953;28;20058;-69
2021/12/03 18:13:54;;;;;;;5.50;2.78;;;2.00;99.90;;;;;;4994347;28;20057;-70
2021/12/03 18:19:25;;;;;;;7.80;2.58;;;1.90;99.90;;;;;;4994428;28;20375;-69
2021/12/03 18:46:52;;;;;;;6.75;2.47;;;2.00;99.90;;;;;;4998315;28;20051;-68
2021/12/03 18:51:42;;;;;;;4.30;2.40;;;1.90;99.90;;;;;;5005026;28;20113;-68
2021/12/03 18:54:24;;;;;;;7.68;3.75;;;2.00;99.90;;;;;;5012863;28;20097;-68
2021/12/03 18:56:52;;;;;;;6.65;3.60;;;2.00;99.90;;;;;;5012339;28;20514;-69
2021/12/03 18:59:18;;;;;;;4.53;2.60;;;2.00;99.90;;;;;;5012608;28;20033;-70
2021/12/03 19:01:45;;;;;;;7.82;2.60;;;2.00;99.90;;;;;;5013241;28;20026;-71
2021/12/03 19:04:32;;;;;;;7.47;2.80;;;2.10;99.90;;;;;;5012661;28;20117;-68
2021/12/03 19:07:05;;;;;;;5.97;2.40;;;2.10;99.90;;;;;;5013580;28;20109;-70
2021/12/03 19:09:39;;;;;;;6.63;2.55;;;2.10;99.90;;;;;;4995355;28;20113;-68
2021/12/03 19:12:10;;;;;;;11.60;3.05;;;2.10;99.90;;;;;;4993161;28;20057;-70
2021/12/03 19:14:40;;;;;;;5.50;2.45;;;2.10;99.90;;;;;;4993548;28;20366;-68
2021/12/03 19:17:08;;;;;;;8.88;3.15;;;2.10;99.90;;;;;;5001875;28;20027;-69
2021/12/03 19:19:40;;;;;;;5.50;2.85;;;2.10;99.90;;;;;;5001213;28;20043;-68
2021/12/03 19:22:05;;;;;;;14.48;3.80;;;2.10;99.90;;;;;;5001990;28;20022;-67
2021/12/03 19:24:32;;;;;;;7.70;3.30;;;2.10;99.90;;;;;;5000036;28;20037;-68
2021/12/03 19:26:57;;;;;;;8.30;3.45;;;2.10;99.90;;;;;;5001104;28;20030;-68
2021/12/03 19:29:23;;;;;;;11.93;3.53;;;2.10;99.90;;;;;;4999781;28;20431;-68
2021/12/03 19:31:51;;;;;;;7.93;3.65;;;2.10;99.90;;;;;;5000281;28;20022;-70
2021/12/03 19:34:20;;;;;;;8.48;3.47;;;2.10;99.90;;;;;;4999739;28;20518;-70
2021/12/03 19:36:47;;;;;;;5.85;3.20;;;2.10;99.90;;;;;;4999843;28;20029;-69
2021/12/03 19:39:15;;;;;;;9.45;3.67;;;2.10;99.90;;;;;;5003260;28;20048;-70
2021/12/03 19:44:40;;;;;;;5.47;2.80;;;2.10;99.90;;;;;;5005872;28;20057;-70
2021/12/03 19:47:08;;;;;;;6.03;2.90;;;2.10;99.90;;;;;;5011524;28;20054;-70
2021/12/03 19:52:23;;;;;;;6.47;2.83;;;2.10;99.90;;;;;;5012025;28;20034;-69
2021/12/03 19:54:49;;;;;;;4.10;2.60;;;2.10;99.90;;;;;;5012529;28;20450;-69
2021/12/03 19:57:15;;;;;;;14.27;2.83;;;2.20;99.90;;;;;;5011647;28;20036;-70
2021/12/03 19:59:41;;;;;;;5.35;2.83;;;2.20;99.90;;;;;;4995768;28;20026;-68
2021/12/03 20:02:07;;;;;;;8.35;3.67;;;2.20;99.90;;;;;;4992634;28;20096;-70
2021/12/03 20:04:33;;;;;;;6.50;2.90;;;2.20;99.90;;;;;;4992513;28;20025;-70
2021/12/03 20:07:01;;;;;;;5.25;2.72;;;2.20;99.90;;;;;;4992620;28;20375;-69
2021/12/03 20:09:39;;;;;;;6.47;3.13;;;2.30;99.90;;;;;;4990593;28;20026;-70
2021/12/03 20:12:10;;;;;;;5.20;2.80;;;2.30;99.90;;;;;;5002117;28;20455;-70
2021/12/03 20:14:37;;;;;;;8.57;3.30;;;2.30;99.90;;;;;;5010915;28;20108;-70
2021/12/03 20:17:08;;;;;;;5.53;2.75;;;2.30;99.90;;;;;;5011711;28;20050;-71
2021/12/03 20:19:36;;;;;;;4.07;2.38;;;2.40;99.90;;;;;;5011173;28;20033;-70
2021/12/03 20:22:25;;;;;;;3.90;2.60;;;2.40;99.90;;;;;;5011707;28;20463;-70
2021/12/03 20:27:27;;;;;;;5.60;2.92;;;2.40;99.90;;;;;;5011416;28;20423;-69
2021/12/03 20:29:56;;;;;;;;;;;2.40;99.90;;;;;;5014107;28;20029;-69
2021/12/03 20:37:35;;;;;;;5.38;2.60;;;2.40;99.90;;;;;;5015321;28;20036;-69
2021/12/03 20:40:09;;;;;;;4.07;2.53;;;2.40;99.90;;;;;;5015931;28;20025;-69
2021/12/03 20:42:42;;;;;;;7.15;2.72;;;2.40;99.90;;;;;;5015841;28;20383;-69
2021/12/03 20:45:28;;;;;;;3.67;2.63;;;2.50;99.90;;;;;;5014570;28;20085;-69
2021/12/03 21:09:25;;;;;;;3.92;2.47;;;2.70;98.80;;;;;;4994531;28;20077;-71